createdAt,value
2017-10-31T00:00:33.166Z,87.72
2017-10-31T00:03:01.478Z,87.68
2017-10-31T00:05:29.830Z,87.72
2017-10-31T00:07:58.148Z,87.82
2017-10-31T00:10:26.453Z,87.69
2017-10-31T00:12:55.550Z,87.63
2017-10-31T00:15:24.630Z,87.36
2017-10-31T00:17:53.720Z,87.56
2017-10-31T00:20:22.038Z,87.45
2017-10-31T00:22:50.346Z,87.29
2017-10-31T00:25:18.670Z,87.22
2017-10-31T00:27:47.745Z,87.47
2017-10-31T00:30:16.047Z,87.36
2017-10-31T00:32:45.156Z,87.33
2017-10-31T00:35:13.458Z,87.82
2017-10-31T00:37:41.774Z,87.65
2017-10-31T00:40:10.908Z,87.83
2017-10-31T00:42:39.229Z,87.94
2017-10-31T00:45:07.541Z,87.97
2017-10-31T00:47:36.613Z,87.88
2017-10-31T00:50:04.931Z,87.91
2017-10-31T00:52:33.246Z,87.65
2017-10-31T00:55:01.558Z,87.73
2017-10-31T00:57:29.880Z,88.42
2017-10-31T00:59:58.181Z,88.77
2017-10-31T01:02:26.498Z,88.79
2017-10-31T01:04:55.558Z,88.84
2017-10-31T01:07:23.879Z,88.94
2017-10-31T01:09:52.200Z,88.83
2017-10-31T01:12:20.531Z,88.49
2017-10-31T01:14:49.603Z,88.56
2017-10-31T01:17:17.933Z,88.38
2017-10-31T01:19:46.238Z,88.52
2017-10-31T01:22:14.553Z,88.63
2017-10-31T01:24:43.626Z,88.76
2017-10-31T01:27:11.967Z,88.48
2017-10-31T01:29:40.277Z,88.73
2017-10-31T01:32:08.581Z,88.59
2017-10-31T01:34:37.667Z,88.61
2017-10-31T01:37:06.738Z,88.74
2017-10-31T01:39:35.059Z,88.18
2017-10-31T01:42:04.139Z,88.80
2017-10-31T01:44:33.235Z,89.03
2017-10-31T01:47:02.311Z,89.01
2017-10-31T01:49:30.634Z,88.94
2017-10-31T01:51:58.946Z,89.22
2017-10-31T01:54:27.258Z,89.25
2017-10-31T01:56:56.338Z,89.19
2017-10-31T01:59:24.663Z,89.32
2017-10-31T02:01:52.974Z,89.34
2017-10-31T02:04:21.314Z,89.35
2017-10-31T02:06:49.634Z,89.26
2017-10-31T02:09:17.966Z,89.08
2017-10-31T02:11:46.278Z,89.03
2017-10-31T02:14:14.610Z,88.71
2017-10-31T02:16:42.934Z,88.82
2017-10-31T02:19:11.255Z,88.67
2017-10-31T02:21:40.326Z,88.59
2017-10-31T02:24:08.650Z,88.46
2017-10-31T02:26:36.945Z,88.84
2017-10-31T02:29:05.252Z,89.35
2017-10-31T02:31:33.563Z,90.08
2017-10-31T02:34:01.894Z,90.13
2017-10-31T02:36:30.199Z,90.12
2017-10-31T02:39:18.102Z,90.44
2017-10-31T02:41:46.422Z,90.45
2017-10-31T02:44:15.532Z,90.40
2017-10-31T02:46:44.593Z,90.04
2017-10-31T02:49:12.906Z,90.39
2017-10-31T02:51:42.032Z,89.78
2017-10-31T02:54:10.352Z,89.59
2017-10-31T02:56:38.666Z,89.74
2017-10-31T02:59:06.980Z,89.24
2017-10-31T03:01:35.286Z,89.13
2017-10-31T03:04:03.627Z,89.40
2017-10-31T03:06:31.938Z,89.14
2017-10-31T03:09:00.253Z,89.20
2017-10-31T03:11:28.558Z,88.78
2017-10-31T03:13:56.866Z,88.58
2017-10-31T03:16:25.165Z,88.72
2017-10-31T03:18:54.245Z,88.61
2017-10-31T03:21:22.542Z,89.15
2017-10-31T03:23:51.637Z,89.07
2017-10-31T03:26:20.704Z,89.16
2017-10-31T03:28:49.013Z,89.09
2017-10-31T03:31:18.097Z,89.25
2017-10-31T03:33:47.185Z,89.24
2017-10-31T03:36:15.477Z,89.61
2017-10-31T03:38:44.561Z,89.63
2017-10-31T03:41:12.854Z,90.35
2017-10-31T03:43:41.158Z,90.56
2017-10-31T03:46:09.481Z,90.51
2017-10-31T03:48:37.787Z,90.46
2017-10-31T03:51:06.863Z,90.74
2017-10-31T03:53:35.158Z,90.47
2017-10-31T03:56:04.227Z,90.68
2017-10-31T03:58:32.526Z,90.84
2017-10-31T04:01:01.615Z,90.71
2017-10-31T04:03:30.679Z,91.13
2017-10-31T04:05:59.004Z,90.95
2017-10-31T04:08:27.302Z,90.52
2017-10-31T04:10:55.614Z,90.45
2017-10-31T04:13:23.918Z,90.52
2017-10-31T04:15:52.997Z,90.51
2017-10-31T04:18:21.297Z,90.87
2017-10-31T04:20:50.373Z,90.66
2017-10-31T04:23:18.674Z,90.84
2017-10-31T04:25:46.990Z,90.78
2017-10-31T04:28:15.301Z,91.20
2017-10-31T04:30:43.609Z,91.51
2017-10-31T04:33:11.908Z,91.69
2017-10-31T04:35:40.222Z,91.69
2017-10-31T04:38:08.529Z,91.88
2017-10-31T04:40:37.602Z,91.90
2017-10-31T04:43:05.898Z,91.80
2017-10-31T04:45:34.244Z,91.95
2017-10-31T04:48:02.550Z,92.04
2017-10-31T04:50:31.646Z,92.10
2017-10-31T04:53:00.714Z,91.82
2017-10-31T04:55:29.038Z,91.70
2017-10-31T04:57:57.345Z,91.55
2017-10-31T05:00:25.650Z,91.46
2017-10-31T05:02:53.940Z,91.43
2017-10-31T05:05:22.255Z,91.68
2017-10-31T05:07:50.559Z,91.72
2017-10-31T05:10:18.862Z,91.70
2017-10-31T05:12:47.170Z,91.76
2017-10-31T05:15:16.250Z,91.69
2017-10-31T05:17:44.542Z,91.44
2017-10-31T05:20:12.850Z,91.06
2017-10-31T05:22:41.149Z,90.74
2017-10-31T05:25:09.455Z,91.12
2017-10-31T05:27:37.762Z,90.98
2017-10-31T05:30:06.065Z,90.75
2017-10-31T05:32:34.355Z,90.76
2017-10-31T05:35:02.667Z,90.61
2017-10-31T05:37:31.746Z,90.28
2017-10-31T05:40:00.062Z,90.35
2017-10-31T05:42:28.362Z,90.33
2017-10-31T05:44:56.685Z,89.87
2017-10-31T05:47:25.007Z,89.67
2017-10-31T05:49:53.326Z,89.65
2017-10-31T05:52:21.638Z,89.60
2017-10-31T05:54:50.730Z,89.45
2017-10-31T05:57:19.054Z,89.61
2017-10-31T05:59:47.370Z,89.27
2017-10-31T06:02:15.678Z,89.18
2017-10-31T06:04:44.022Z,89.24
2017-10-31T06:07:13.099Z,89.10
2017-10-31T06:09:42.175Z,89.16
2017-10-31T06:12:10.486Z,88.78
2017-10-31T06:14:38.795Z,88.21
2017-10-31T06:17:07.118Z,88.45
2017-10-31T06:19:35.433Z,88.32
2017-10-31T06:22:09.971Z,88.19
2017-10-31T06:24:43.630Z,88.10
2017-10-31T06:27:17.241Z,88.13
2017-10-31T06:29:51.137Z,88.04
2017-10-31T06:32:19.451Z,88.12
2017-10-31T06:34:48.521Z,87.98
2017-10-31T06:37:16.831Z,87.87
2017-10-31T06:39:45.894Z,87.19
2017-10-31T06:42:14.202Z,87.22
2017-10-31T06:44:42.506Z,87.15
2017-10-31T06:47:10.826Z,87.76
2017-10-31T06:49:39.129Z,88.06
2017-10-31T06:52:07.444Z,87.61
2017-10-31T06:54:35.739Z,87.08
2017-10-31T06:57:04.058Z,86.79
2017-10-31T06:59:33.118Z,86.10
2017-10-31T07:02:01.418Z,86.09
2017-10-31T07:04:30.486Z,85.52
2017-10-31T07:06:58.795Z,85.18
2017-10-31T07:09:27.882Z,86.08
2017-10-31T07:11:56.195Z,85.43
2017-10-31T07:14:24.503Z,85.74
2017-10-31T07:16:52.830Z,85.16
2017-10-31T07:19:21.889Z,85.47
2017-10-31T07:21:50.194Z,85.80
2017-10-31T07:24:19.262Z,84.73
2017-10-31T07:26:47.610Z,84.81
2017-10-31T07:29:15.917Z,84.95
2017-10-31T07:31:44.244Z,84.47
2017-10-31T07:34:13.302Z,85.31
2017-10-31T07:36:41.639Z,85.44
2017-10-31T07:39:09.954Z,85.74
2017-10-31T07:41:38.313Z,85.47
2017-10-31T07:44:06.653Z,85.65
2017-10-31T07:46:34.960Z,85.89
2017-10-31T07:49:03.695Z,85.87
2017-10-31T07:51:32.754Z,86.38
2017-10-31T07:54:01.078Z,85.86
2017-10-31T07:56:29.379Z,86.20
2017-10-31T07:58:57.690Z,86.06
2017-10-31T08:01:25.990Z,85.97
2017-10-31T08:03:54.312Z,85.79
2017-10-31T08:06:22.626Z,85.51
2017-10-31T08:08:50.947Z,84.41
2017-10-31T08:11:19.250Z,84.42
2017-10-31T08:13:47.558Z,85.00
2017-10-31T08:16:15.858Z,83.97
2017-10-31T08:18:44.929Z,84.08
2017-10-31T08:21:13.226Z,84.22
2017-10-31T08:23:41.548Z,83.44
2017-10-31T08:26:09.852Z,82.72
2017-10-31T08:28:38.165Z,82.25
2017-10-31T08:31:07.259Z,81.77
2017-10-31T08:33:36.382Z,80.41
2017-10-31T08:36:04.689Z,80.71
2017-10-31T08:38:33.769Z,79.93
2017-10-31T08:41:02.062Z,79.98
2017-10-31T08:43:30.378Z,82.61
2017-10-31T08:45:58.666Z,82.97
2017-10-31T08:48:27.734Z,82.82
2017-10-31T08:50:56.748Z,82.33
2017-10-31T08:53:25.817Z,82.62
2017-10-31T08:55:54.110Z,83.23
2017-10-31T08:58:22.438Z,83.58
2017-10-31T09:00:50.730Z,83.67
2017-10-31T09:03:19.044Z,83.81
2017-10-31T09:05:47.330Z,83.58
2017-10-31T09:08:15.645Z,83.57
2017-10-31T09:10:43.939Z,82.89
2017-10-31T09:13:12.258Z,82.48
2017-10-31T09:15:40.563Z,81.42
2017-10-31T09:18:09.635Z,81.08
2017-10-31T09:20:38.694Z,79.16
2017-10-31T09:23:07.003Z,79.36
2017-10-31T09:25:36.067Z,78.98
2017-10-31T09:28:04.387Z,77.17
2017-10-31T09:30:33.468Z,77.51
2017-10-31T09:33:01.787Z,79.01
2017-10-31T09:35:30.574Z,79.15
2017-10-31T09:37:58.871Z,78.67
2017-10-31T09:40:27.170Z,78.68
2017-10-31T09:42:55.486Z,78.02
2017-10-31T09:45:24.542Z,79.87
2017-10-31T09:47:52.855Z,79.81
2017-10-31T09:50:21.911Z,79.57
2017-10-31T09:52:50.214Z,79.15
2017-10-31T09:55:19.304Z,78.52
2017-10-31T09:57:47.614Z,78.15
2017-10-31T10:00:15.914Z,76.85
2017-10-31T10:02:44.218Z,77.42
2017-10-31T10:05:12.529Z,76.26
2017-10-31T10:07:40.835Z,74.45
2017-10-31T10:10:09.154Z,75.88
2017-10-31T10:12:37.458Z,74.89
2017-10-31T10:15:06.537Z,73.99
2017-10-31T10:17:34.846Z,73.79
2017-10-31T10:20:03.150Z,72.87
2017-10-31T10:22:31.458Z,73.37
2017-10-31T10:24:59.778Z,73.43
2017-10-31T10:27:28.086Z,73.10
2017-10-31T10:29:56.398Z,73.77
2017-10-31T10:32:24.705Z,72.23
2017-10-31T10:34:53.021Z,71.20
2017-10-31T10:37:21.331Z,71.88
2017-10-31T10:39:49.641Z,71.05
2017-10-31T10:42:17.942Z,69.47
2017-10-31T10:44:46.255Z,68.23
2017-10-31T10:47:14.562Z,68.66
2017-10-31T10:49:42.888Z,69.75
2017-10-31T10:52:11.190Z,69.04
2017-10-31T10:54:39.498Z,67.08
2017-10-31T10:57:08.564Z,69.36
2017-10-31T10:59:36.883Z,69.51
2017-10-31T11:02:05.216Z,70.10
2017-10-31T11:04:33.535Z,71.52
2017-10-31T11:07:01.840Z,73.37
2017-10-31T11:09:30.843Z,72.24
2017-10-31T11:11:59.152Z,72.55
2017-10-31T11:14:27.483Z,73.66
2017-10-31T11:16:55.810Z,72.84
2017-10-31T11:19:24.904Z,71.87
2017-10-31T11:21:53.235Z,72.38
2017-10-31T11:24:21.564Z,71.89
2017-10-31T11:26:50.642Z,71.28
2017-10-31T11:29:18.971Z,70.87
2017-10-31T11:31:47.270Z,70.95
2017-10-31T11:34:15.580Z,71.56
2017-10-31T11:36:43.895Z,71.97
2017-10-31T11:39:12.198Z,71.86
2017-10-31T11:41:40.518Z,70.70
2017-10-31T11:44:08.822Z,70.43
2017-10-31T11:46:37.170Z,69.53
2017-10-31T11:49:05.500Z,68.43
2017-10-31T11:51:33.812Z,69.27
2017-10-31T11:54:02.119Z,68.69
2017-10-31T11:56:31.202Z,68.96
2017-10-31T11:59:00.284Z,69.23
2017-10-31T12:01:28.619Z,69.02
2017-10-31T12:03:56.927Z,67.28
2017-10-31T12:06:26.015Z,65.46
2017-10-31T12:08:54.322Z,65.45
2017-10-31T12:11:22.642Z,66.62
2017-10-31T12:13:50.969Z,66.89
2017-10-31T12:16:19.273Z,67.00
2017-10-31T12:18:48.342Z,66.77
2017-10-31T12:21:16.640Z,66.61
2017-10-31T12:23:44.959Z,67.54
2017-10-31T12:26:13.286Z,68.19
2017-10-31T12:28:42.347Z,67.48
2017-10-31T12:31:10.640Z,67.82
2017-10-31T12:33:38.941Z,69.34
2017-10-31T12:36:08.017Z,68.54
2017-10-31T12:38:36.337Z,68.98
2017-10-31T12:41:04.653Z,69.74
2017-10-31T12:43:32.986Z,68.76
2017-10-31T12:46:01.325Z,69.84
2017-10-31T12:48:29.647Z,70.89
2017-10-31T12:50:58.046Z,71.75
2017-10-31T12:53:26.381Z,72.31
2017-10-31T12:55:55.469Z,71.93
2017-10-31T12:58:23.773Z,72.29
2017-10-31T13:00:52.083Z,72.98
2017-10-31T13:03:20.415Z,72.47
2017-10-31T13:05:49.540Z,72.31
2017-10-31T13:08:17.884Z,71.93
2017-10-31T13:10:47.016Z,71.84
2017-10-31T13:13:15.316Z,72.00
2017-10-31T13:15:43.617Z,71.36
2017-10-31T13:18:11.924Z,71.77
2017-10-31T13:20:41.028Z,71.32
2017-10-31T13:23:09.366Z,71.25
2017-10-31T13:25:37.661Z,71.50
2017-10-31T13:28:06.945Z,71.78
2017-10-31T13:30:35.617Z,72.05
2017-10-31T13:33:04.176Z,72.21
2017-10-31T13:35:32.746Z,72.10
2017-10-31T13:38:01.377Z,72.36
2017-10-31T13:40:30.150Z,72.29
2017-10-31T13:42:59.579Z,72.46
2017-10-31T13:45:27.868Z,72.86
2017-10-31T13:47:56.940Z,72.82
2017-10-31T13:50:25.237Z,72.07
2017-10-31T13:52:54.343Z,72.83
2017-10-31T13:55:23.411Z,72.73
2017-10-31T13:57:51.734Z,73.00
2017-10-31T14:00:20.257Z,72.91
2017-10-31T14:02:48.722Z,73.51
2017-10-31T14:05:17.237Z,72.68
2017-10-31T14:07:45.733Z,73.06
2017-10-31T14:10:15.366Z,72.85
2017-10-31T14:12:43.918Z,73.06
2017-10-31T14:15:12.986Z,72.75
2017-10-31T14:17:41.298Z,73.51
2017-10-31T14:20:10.706Z,72.96
2017-10-31T14:22:39.775Z,72.97
2017-10-31T14:25:08.145Z,72.98
2017-10-31T14:27:36.454Z,72.46
2017-10-31T14:30:05.527Z,72.30
2017-10-31T14:32:33.813Z,72.56
2017-10-31T14:35:02.122Z,72.62
2017-10-31T14:37:30.408Z,72.86
2017-10-31T14:39:58.715Z,73.22
2017-10-31T14:42:27.013Z,73.46
2017-10-31T14:44:55.326Z,73.60
2017-10-31T14:47:23.643Z,73.78
2017-10-31T14:49:51.962Z,74.00
2017-10-31T14:52:21.021Z,73.78
2017-10-31T14:54:49.323Z,74.38
2017-10-31T14:57:17.625Z,74.18
2017-10-31T14:59:45.941Z,74.19
2017-10-31T15:02:14.230Z,74.04
2017-10-31T15:04:42.545Z,73.93
2017-10-31T15:07:11.665Z,74.51
2017-10-31T15:09:39.968Z,74.72
2017-10-31T15:12:08.264Z,74.42
2017-10-31T15:14:36.557Z,74.88
2017-10-31T15:17:04.857Z,74.64
2017-10-31T15:19:33.170Z,74.44
2017-10-31T15:22:01.462Z,74.58
2017-10-31T15:24:29.833Z,75.03
2017-10-31T15:26:58.205Z,75.03
2017-10-31T15:29:26.523Z,74.96
2017-10-31T15:31:54.808Z,74.95
2017-10-31T15:34:23.942Z,75.37
2017-10-31T15:36:52.246Z,75.39
2017-10-31T15:39:21.331Z,75.67
2017-10-31T15:41:49.633Z,76.25
2017-10-31T15:44:17.945Z,76.48
2017-10-31T15:46:46.278Z,75.80
2017-10-31T15:49:14.597Z,76.26
2017-10-31T15:51:42.911Z,76.12
2017-10-31T15:54:11.259Z,76.54
2017-10-31T15:56:39.605Z,76.67
2017-10-31T15:59:07.943Z,76.65
2017-10-31T16:01:36.236Z,76.83
2017-10-31T16:04:04.528Z,77.01
2017-10-31T16:06:32.824Z,76.97
2017-10-31T16:09:01.893Z,76.81
2017-10-31T16:11:30.192Z,76.76
2017-10-31T16:13:58.511Z,76.90
2017-10-31T16:16:26.809Z,77.09
2017-10-31T16:18:55.115Z,76.71
2017-10-31T16:21:23.423Z,76.47
2017-10-31T16:23:51.731Z,76.27
2017-10-31T16:26:20.073Z,76.06
2017-10-31T16:28:49.160Z,77.44
2017-10-31T16:31:18.229Z,77.80
2017-10-31T16:33:46.548Z,77.75
2017-10-31T16:36:14.850Z,78.02
2017-10-31T16:38:43.177Z,78.35
2017-10-31T16:41:12.258Z,78.33
2017-10-31T16:43:40.562Z,78.20
2017-10-31T16:46:09.648Z,78.36
2017-10-31T16:48:37.967Z,77.82
2017-10-31T16:51:06.264Z,78.09
2017-10-31T16:53:35.321Z,77.91
2017-10-31T16:56:03.634Z,78.22
2017-10-31T16:58:31.941Z,78.13
2017-10-31T17:01:00.269Z,78.21
2017-10-31T17:03:28.590Z,77.94
2017-10-31T17:05:56.909Z,78.02
2017-10-31T17:08:25.221Z,77.73
2017-10-31T17:10:53.529Z,77.89
2017-10-31T17:13:21.835Z,78.37
2017-10-31T17:15:50.174Z,78.44
2017-10-31T17:18:18.472Z,78.43
2017-10-31T17:20:47.549Z,78.79
2017-10-31T17:23:15.862Z,78.71
2017-10-31T17:25:44.197Z,78.91
2017-10-31T17:28:12.530Z,79.02
2017-10-31T17:30:40.842Z,79.15
2017-10-31T17:33:09.157Z,79.44
2017-10-31T17:35:38.224Z,79.52
2017-10-31T17:38:06.524Z,79.53
2017-10-31T17:40:35.623Z,82.30
2017-10-31T17:43:04.688Z,79.21
2017-10-31T17:45:33.764Z,79.02
2017-10-31T17:48:02.060Z,79.06
2017-10-31T17:50:30.381Z,78.53
2017-10-31T17:52:59.465Z,85.12
2017-10-31T17:55:28.549Z,78.32
2017-10-31T17:57:56.847Z,78.32
2017-10-31T18:00:25.152Z,78.40
2017-10-31T18:02:53.443Z,78.79
2017-10-31T18:05:21.746Z,78.94
2017-10-31T18:07:50.169Z,78.68
2017-10-31T18:10:18.476Z,78.75
2017-10-31T18:12:46.765Z,78.64
2017-10-31T18:15:15.099Z,78.63
2017-10-31T18:17:43.401Z,78.39
2017-10-31T18:20:11.719Z,78.58
2017-10-31T18:22:40.010Z,78.72
2017-10-31T18:25:09.082Z,78.92
2017-10-31T18:27:37.382Z,78.71
2017-10-31T18:30:06.457Z,78.76
2017-10-31T18:32:35.540Z,78.87
2017-10-31T18:35:03.867Z,78.91
2017-10-31T18:37:32.166Z,78.73
2017-10-31T18:40:00.469Z,78.68
2017-10-31T18:42:28.762Z,78.48
2017-10-31T18:44:57.065Z,78.56
2017-10-31T18:47:26.123Z,78.74
2017-10-31T18:49:54.443Z,79.53
2017-10-31T18:52:22.753Z,80.20
2017-10-31T18:54:51.041Z,80.25
2017-10-31T18:57:19.362Z,81.02
2017-10-31T18:59:48.437Z,81.12
2017-10-31T19:02:16.755Z,80.98
2017-10-31T19:04:45.053Z,80.85
2017-10-31T19:07:13.361Z,80.95
2017-10-31T19:09:41.676Z,80.67
2017-10-31T19:12:09.986Z,81.04
2017-10-31T19:14:38.279Z,81.28
2017-10-31T19:17:06.591Z,80.92
2017-10-31T19:19:35.654Z,80.76
2017-10-31T19:22:03.965Z,81.04
2017-10-31T19:24:33.019Z,81.07
2017-10-31T19:27:01.329Z,81.30
2017-10-31T19:29:29.638Z,80.87
2017-10-31T19:31:57.941Z,81.00
2017-10-31T19:34:26.241Z,80.54
2017-10-31T19:36:54.564Z,80.22
2017-10-31T19:39:22.866Z,79.76
2017-10-31T19:41:51.173Z,79.53
2017-10-31T19:44:19.477Z,79.82
2017-10-31T19:46:48.551Z,79.18
2017-10-31T19:49:16.846Z,78.92
2017-10-31T19:51:45.913Z,78.90
2017-10-31T19:54:14.217Z,78.66
2017-10-31T19:56:43.290Z,78.55
2017-10-31T19:59:11.598Z,78.19
2017-10-31T20:01:40.661Z,78.08
2017-10-31T20:04:08.961Z,78.09
2017-10-31T20:06:38.045Z,78.33
2017-10-31T20:09:06.332Z,77.88
2017-10-31T20:11:35.397Z,78.20
2017-10-31T20:14:03.720Z,78.31
2017-10-31T20:16:32.034Z,78.25
2017-10-31T20:19:00.330Z,78.32
2017-10-31T20:21:28.642Z,78.33
2017-10-31T20:23:57.704Z,79.02
2017-10-31T20:26:26.013Z,79.44
2017-10-31T20:28:55.069Z,79.33
2017-10-31T20:31:23.389Z,79.42
2017-10-31T20:33:52.515Z,79.71
2017-10-31T20:36:20.820Z,79.65
2017-10-31T20:38:49.116Z,79.67
2017-10-31T20:41:17.424Z,79.64
2017-10-31T20:43:45.723Z,79.78
2017-10-31T20:46:14.025Z,79.67
2017-10-31T20:48:42.327Z,79.33
2017-10-31T20:51:10.637Z,79.43
2017-10-31T20:53:39.032Z,79.82
2017-10-31T20:56:07.272Z,79.61
2017-10-31T20:58:36.338Z,79.54
2017-10-31T21:01:04.648Z,79.38
2017-10-31T21:03:33.705Z,79.63
2017-10-31T21:06:02.016Z,79.71
2017-10-31T21:08:31.089Z,79.61
2017-10-31T21:10:59.409Z,79.64
2017-10-31T21:13:27.701Z,79.50
2017-10-31T21:15:56.014Z,79.90
2017-10-31T21:18:24.320Z,79.82
2017-10-31T21:20:53.385Z,79.86
2017-10-31T21:23:21.703Z,79.73
2017-10-31T21:25:50.782Z,79.81
2017-10-31T21:28:19.866Z,79.52
2017-10-31T21:30:48.182Z,79.53
2017-10-31T21:33:16.492Z,79.65
2017-10-31T21:35:44.825Z,79.63
2017-10-31T21:38:13.898Z,79.55
2017-10-31T21:40:42.195Z,79.29
2017-10-31T21:43:11.272Z,79.49
2017-10-31T21:45:39.651Z,79.16
2017-10-31T21:48:07.953Z,79.02
2017-10-31T21:50:36.249Z,78.65
2017-10-31T21:53:04.561Z,78.28
2017-10-31T21:55:32.864Z,77.94
2017-10-31T21:58:01.997Z,78.01
2017-10-31T22:00:30.285Z,78.13
2017-10-31T22:02:58.610Z,78.10
2017-10-31T22:05:26.913Z,78.34
2017-10-31T22:07:55.217Z,78.21
2017-10-31T22:10:23.520Z,78.18
2017-10-31T22:12:51.833Z,78.45
2017-10-31T22:15:20.897Z,78.27
2017-10-31T22:17:49.213Z,78.36
2017-10-31T22:20:17.513Z,77.95
2017-10-31T22:22:45.822Z,78.08
2017-10-31T22:25:14.124Z,78.29
2017-10-31T22:27:43.209Z,78.43
2017-10-31T22:30:11.507Z,78.39
2017-10-31T22:32:40.573Z,78.26
2017-10-31T22:35:08.883Z,78.34
2017-10-31T22:37:37.951Z,78.48
2017-10-31T22:40:06.277Z,78.53
2017-10-31T22:42:34.586Z,78.67
2017-10-31T22:45:02.904Z,78.79
2017-10-31T22:47:31.991Z,78.71
2017-10-31T22:50:00.319Z,78.58
2017-10-31T22:52:28.631Z,78.64
2017-10-31T22:54:56.937Z,78.69
2017-10-31T22:57:25.252Z,78.60
2017-10-31T22:59:53.554Z,78.64
2017-10-31T23:02:21.874Z,78.89
2017-10-31T23:04:50.175Z,78.96
2017-10-31T23:07:18.493Z,79.11
2017-10-31T23:09:46.797Z,79.03
2017-10-31T23:12:15.870Z,79.14
2017-10-31T23:14:44.165Z,78.96
2017-10-31T23:17:13.248Z,78.66
2017-10-31T23:19:41.545Z,78.76
2017-10-31T23:22:09.853Z,78.59
2017-10-31T23:24:38.147Z,78.44
2017-10-31T23:27:06.458Z,78.60
2017-10-31T23:29:34.749Z,78.73
2017-10-31T23:32:03.818Z,78.71
2017-10-31T23:34:32.133Z,78.81
2017-10-31T23:37:00.440Z,79.29
2017-10-31T23:39:28.743Z,79.03
2017-10-31T23:41:57.053Z,79.09
2017-10-31T23:44:26.131Z,78.83
2017-10-31T23:46:54.454Z,78.77
2017-10-31T23:49:22.766Z,78.82
2017-10-31T23:51:51.077Z,78.83
2017-10-31T23:54:20.143Z,78.97
2017-10-31T23:56:48.457Z,78.93
2017-10-31T23:59:17.544Z,78.77
